createdAt,value
2019-02-16T00:01:59.035Z,4.00
2019-02-16T00:07:03.070Z,3.00
2019-02-16T00:12:07.384Z,3.00
2019-02-16T00:17:11.494Z,2.80
2019-02-16T00:22:15.724Z,3.00
2019-02-16T00:27:19.877Z,3.00
2019-02-16T00:32:23.896Z,3.80
2019-02-16T00:37:27.947Z,4.00
2019-02-16T00:42:32.077Z,3.00
2019-02-16T00:47:36.246Z,3.20
2019-02-16T00:52:40.470Z,4.40
2019-02-16T00:57:44.676Z,3.75
2019-02-16T01:02:48.844Z,1.50
2019-02-16T01:07:52.998Z,2.75
2019-02-16T01:12:57.139Z,3.00
2019-02-16T01:18:01.271Z,3.00
2019-02-16T01:23:05.420Z,2.00
2019-02-16T01:28:09.632Z,2.60
2019-02-16T01:33:13.810Z,3.00
2019-02-16T01:38:18.006Z,3.75
2019-02-16T01:43:22.270Z,3.00
2019-02-16T01:48:26.348Z,3.00
2019-02-16T01:53:30.563Z,2.00
2019-02-16T01:58:34.708Z,2.00
2019-02-16T02:03:38.753Z,2.00
2019-02-16T02:08:42.819Z,2.25
2019-02-16T02:13:46.965Z,2.00
2019-02-16T02:18:51.047Z,2.60
2019-02-16T02:23:55.187Z,2.40
2019-02-16T02:28:59.255Z,1.75
2019-02-16T02:34:03.388Z,3.00
2019-02-16T02:39:07.538Z,2.20
2019-02-16T02:44:11.739Z,3.00
2019-02-16T02:49:15.964Z,2.25
2019-02-16T02:54:20.008Z,2.80
2019-02-16T02:59:24.021Z,2.75
2019-02-16T03:04:28.073Z,1.80
2019-02-16T03:09:32.210Z,2.00
2019-02-16T03:14:36.363Z,1.75
2019-02-16T03:19:40.467Z,1.00
2019-02-16T03:24:44.617Z,2.25
2019-02-16T03:30:19.346Z,1.00
2019-02-16T03:35:49.593Z,2.00
2019-02-16T03:40:53.756Z,2.00
2019-02-16T03:45:57.779Z,2.00
2019-02-16T03:51:01.916Z,2.25
2019-02-16T03:56:06.182Z,2.00
2019-02-16T04:01:10.401Z,1.25
2019-02-16T04:06:14.568Z,2.00
2019-02-16T04:11:18.739Z,2.00
2019-02-16T04:16:22.767Z,1.25
2019-02-16T04:21:26.970Z,2.00
2019-02-16T04:26:31.118Z,1.00
2019-02-16T04:31:35.233Z,2.00
2019-02-16T04:36:39.415Z,2.00
2019-02-16T04:41:43.433Z,2.25
2019-02-16T04:46:47.485Z,2.00
2019-02-16T04:51:51.589Z,1.75
2019-02-16T04:56:55.611Z,1.00
2019-02-16T05:01:59.691Z,1.25
2019-02-16T05:07:03.854Z,1.80
2019-02-16T05:12:08.083Z,1.00
2019-02-16T05:17:12.240Z,1.00
2019-02-16T05:22:16.286Z,1.00
2019-02-16T05:27:20.332Z,2.00
2019-02-16T05:32:24.625Z,1.00
2019-02-16T05:37:30.461Z,1.00
2019-02-16T05:42:34.444Z,0.33
2019-02-16T05:47:38.603Z,1.50
2019-02-16T05:52:42.714Z,1.00
2019-02-16T05:57:46.781Z,1.00
2019-02-16T06:02:50.888Z,2.00
2019-02-16T06:07:55.031Z,1.50
2019-02-16T06:12:59.034Z,1.40
2019-02-16T06:18:03.045Z,1.40
2019-02-16T06:23:07.131Z,0.75
2019-02-16T06:28:11.133Z,1.00
2019-02-16T06:33:15.345Z,1.00
2019-02-16T06:38:19.378Z,1.50
2019-02-16T06:43:23.477Z,1.00
2019-02-16T06:48:27.567Z,1.00
2019-02-16T06:53:31.645Z,1.40
2019-02-16T06:58:35.685Z,1.25
2019-02-16T07:03:39.680Z,1.00
2019-02-16T07:08:44.320Z,1.33
2019-02-16T07:13:48.353Z,1.00
2019-02-16T07:18:57.654Z,1.00
2019-02-16T07:24:01.786Z,1.00
2019-02-16T07:29:05.815Z,0.00
2019-02-16T07:34:09.986Z,0.25
2019-02-16T07:39:13.988Z,1.00
2019-02-16T07:44:33.194Z,1.00
2019-02-16T07:49:44.555Z,0.50
2019-02-16T07:55:12.189Z,1.00
2019-02-16T08:00:27.070Z,6.00
2019-02-16T08:05:41.422Z,5.80
2019-02-16T08:11:00.917Z,4.20
2019-02-16T08:16:19.788Z,5.50
2019-02-16T08:21:45.713Z,3.25
2019-02-16T08:26:57.085Z,3.00
2019-02-16T08:32:10.120Z,3.20
2019-02-16T08:37:35.997Z,3.00
2019-02-16T08:42:49.644Z,3.00
2019-02-16T08:48:17.969Z,3.50
2019-02-16T08:53:31.481Z,2.00
2019-02-16T08:58:51.160Z,3.00
2019-02-16T09:04:12.786Z,3.00
2019-02-16T09:09:34.249Z,3.00
2019-02-16T09:14:48.475Z,3.00
2019-02-16T09:20:11.607Z,3.00
2019-02-16T09:25:28.277Z,3.00
2019-02-16T09:30:54.394Z,3.00
2019-02-16T09:36:20.524Z,2.00
2019-02-16T09:41:47.856Z,3.00
2019-02-16T09:47:16.875Z,3.00
2019-02-16T09:52:54.751Z,1.50
2019-02-16T09:58:17.792Z,2.00
2019-02-16T10:03:33.621Z,2.25
2019-02-16T10:08:47.251Z,2.20
2019-02-16T10:14:03.850Z,2.00
2019-02-16T10:19:25.455Z,3.00
2019-02-16T10:24:46.874Z,1.80
2019-02-16T10:30:09.676Z,2.00
2019-02-16T10:35:31.535Z,2.00
2019-02-16T10:40:49.690Z,2.00
2019-02-16T10:46:18.566Z,3.00
2019-02-16T10:51:33.102Z,2.00
2019-02-16T10:56:46.247Z,3.00
2019-02-16T11:02:03.367Z,1.00
2019-02-16T11:07:12.566Z,2.00
2019-02-16T11:12:31.737Z,2.25
2019-02-16T11:17:53.435Z,2.50
2019-02-16T11:23:15.109Z,1.00
2019-02-16T11:28:36.034Z,2.00
2019-02-16T11:34:11.177Z,1.67
2019-02-16T11:39:37.016Z,2.00
2019-02-16T11:45:14.917Z,2.00
2019-02-16T11:50:43.981Z,2.00
2019-02-16T11:56:12.744Z,1.00
2019-02-16T12:01:35.730Z,2.00
2019-02-16T12:06:47.788Z,2.25
2019-02-16T12:12:13.129Z,2.20
2019-02-16T12:17:38.158Z,1.60
2019-02-16T12:22:47.212Z,1.00
2019-02-16T12:28:05.942Z,1.00
2019-02-16T12:33:26.192Z,2.00
2019-02-16T12:38:49.437Z,1.00
2019-02-16T12:44:30.768Z,1.20
2019-02-16T12:49:59.881Z,2.00
2019-02-16T12:55:21.518Z,2.00
2019-02-16T13:00:46.971Z,1.50
2019-02-16T13:05:58.220Z,2.00
2019-02-16T13:11:08.011Z,3.80
2019-02-16T13:16:46.093Z,2.33
2019-02-16T13:21:58.341Z,2.00
2019-02-16T13:27:24.135Z,3.00
2019-02-16T13:32:54.082Z,1.00
2019-02-16T13:38:10.492Z,4.80
2019-02-16T13:43:30.085Z,2.00
2019-02-16T13:48:41.948Z,1.20
2019-02-16T13:54:04.989Z,2.00
2019-02-16T13:59:37.158Z,1.60
2019-02-16T14:04:58.607Z,2.50
2019-02-16T14:10:29.250Z,1.00
2019-02-16T14:15:52.264Z,1.00
2019-02-16T14:20:56.286Z,2.00
2019-02-16T14:26:00.388Z,2.00
2019-02-16T14:31:04.407Z,2.25
2019-02-16T14:36:08.486Z,2.00
2019-02-16T14:41:12.501Z,1.00
2019-02-16T14:46:16.508Z,1.50
2019-02-16T14:51:20.610Z,1.00
2019-02-16T14:56:24.760Z,1.00
2019-02-16T15:01:28.770Z,1.00
2019-02-16T15:06:32.773Z,1.00
2019-02-16T15:11:36.836Z,1.25
2019-02-16T15:16:40.923Z,1.00
2019-02-16T15:21:44.942Z,1.00
2019-02-16T15:26:48.986Z,2.20
2019-02-16T15:31:53.018Z,1.00
2019-02-16T15:36:57.022Z,2.00
2019-02-16T15:42:02.903Z,0.80
2019-02-16T15:47:06.863Z,0.50
2019-02-16T15:52:10.992Z,1.00
2019-02-16T15:57:15.014Z,1.00
2019-02-16T16:02:19.097Z,1.50
2019-02-16T16:07:23.182Z,1.00
2019-02-16T16:13:04.417Z,0.60
2019-02-16T16:18:23.585Z,0.25
2019-02-16T16:23:44.980Z,1.00
2019-02-16T16:29:00.438Z,1.00
2019-02-16T16:34:19.526Z,0.33
2019-02-16T16:39:37.834Z,1.00
2019-02-16T16:45:09.808Z,1.00
2019-02-16T16:51:22.772Z,1.00
2019-02-16T16:56:57.712Z,1.00
2019-02-16T17:02:38.741Z,1.00
2019-02-16T17:08:01.318Z,0.67
2019-02-16T17:13:15.444Z,1.60
2019-02-16T17:18:42.581Z,1.00
2019-02-16T17:24:12.178Z,1.00
2019-02-16T17:29:31.193Z,1.00
2019-02-16T17:35:00.697Z,1.00
2019-02-16T17:40:30.003Z,0.40
2019-02-16T17:45:41.935Z,1.00
2019-02-16T17:51:13.720Z,1.00
2019-02-16T17:56:35.389Z,1.00
2019-02-16T18:02:04.330Z,1.20
2019-02-16T18:07:23.418Z,1.40
2019-02-16T18:12:46.495Z,0.60
2019-02-16T18:18:06.656Z,2.00
2019-02-16T18:23:15.206Z,1.00
2019-02-16T18:28:34.299Z,1.25
2019-02-16T18:33:57.282Z,1.40
2019-02-16T18:39:26.185Z,2.00
2019-02-16T18:44:48.047Z,2.00
2019-02-16T18:50:06.236Z,1.75
2019-02-16T18:55:32.336Z,1.00
2019-02-16T19:00:55.405Z,2.00
2019-02-16T19:06:11.259Z,1.80
2019-02-16T19:11:39.295Z,1.80
2019-02-16T19:17:00.753Z,1.75
2019-02-16T19:22:14.493Z,2.00
2019-02-16T19:27:36.292Z,2.00
2019-02-16T19:32:57.745Z,1.75
2019-02-16T19:38:19.141Z,2.75
2019-02-16T19:43:37.904Z,2.00
2019-02-16T19:48:48.906Z,2.75
2019-02-16T19:53:59.610Z,2.00
2019-02-16T19:59:21.209Z,2.00
2019-02-16T20:05:02.204Z,3.00
2019-02-16T20:10:21.496Z,2.20
2019-02-16T20:15:50.546Z,2.00
2019-02-16T20:21:08.749Z,2.00
2019-02-16T20:26:30.495Z,3.00
2019-02-16T20:31:59.333Z,3.00
2019-02-16T20:37:13.418Z,3.25
2019-02-16T20:42:54.475Z,3.00
2019-02-16T20:48:02.949Z,3.60
2019-02-16T20:53:13.925Z,3.00
2019-02-16T20:58:37.516Z,3.00
2019-02-16T21:04:03.534Z,3.00
2019-02-16T21:09:23.218Z,2.00
2019-02-16T21:14:36.195Z,3.40
2019-02-16T21:19:59.293Z,2.60
2019-02-16T21:25:22.183Z,3.25
2019-02-16T21:30:41.408Z,3.00
2019-02-16T21:36:02.992Z,3.00
2019-02-16T21:41:13.746Z,2.00
2019-02-16T21:46:47.041Z,2.00
2019-02-16T21:52:16.146Z,2.00
2019-02-16T21:57:37.616Z,2.00
2019-02-16T22:02:54.431Z,2.00
2019-02-16T22:08:17.441Z,2.00
2019-02-16T22:13:21.499Z,2.00
2019-02-16T22:18:25.575Z,2.00
2019-02-16T22:23:30.956Z,2.00
2019-02-16T22:28:35.029Z,2.00
2019-02-16T22:33:39.056Z,2.00
2019-02-16T22:38:43.949Z,0.75
2019-02-16T22:43:48.208Z,2.00
2019-02-16T22:48:52.246Z,1.60
2019-02-16T22:53:56.289Z,3.00
2019-02-16T22:59:00.340Z,1.40
2019-02-16T23:04:04.725Z,2.20
2019-02-16T23:09:20.935Z,2.00
2019-02-16T23:14:25.126Z,2.00
2019-02-16T23:19:29.376Z,2.00
2019-02-16T23:24:33.629Z,1.75
2019-02-16T23:29:37.769Z,2.00
2019-02-16T23:34:42.014Z,2.00
2019-02-16T23:39:46.229Z,1.75
2019-02-16T23:44:50.413Z,2.00
2019-02-16T23:49:54.716Z,2.00
2019-02-16T23:54:58.821Z,1.00
